Trinity, Mississippi
Current Conditions -  °F | °C
As of 1:45 PM on Saturday 25 Oct 2014 (Local Time) from KGTR Reporting Station
Clear Clear  
Wind Chill: 81°   Ceiling: Unl
Heat Index: 81°   Visibility: 10mi
Dew Point: 59°   Wind: 6mph
Humidity: 48%   Direction: 320°NW
Pressure: 30.07"   Gusts: NA
Location:  33.3415°N, 88.5175°W
Report Text: KGTR 251845Z 32005KT 10SM SKC 27/15 A3007
Loading
Personal Weather Stations






























Interactive Weather Map
Tropical Storm Tracking
New forecast layout! Learn more

10-Day Weather Forecast

Advertisements
Track Severe Weather on mobile